Time;durP1;ratioP1;P1;durP2;ratioP2;P2;SDS_P1;SDS_P2;PMS_P1;PMS_P2;Temp;Humidity;BMP_temperature;BMP_pressure;BME280_temperature;BME280_humidity;BME280_pressure;Samples;Min_cycle;Max_cycle;Signal;HPM_P1;HPM_P2
2021/04/07 00:01:35;;;;;;;;;;;;;;;21.76;29.89;96289.34;5089246;28;887;-76
2021/04/07 00:04:01;;;;;;;;;;;;;;;21.29;30.17;96284.53;5088982;28;766;-77
2021/04/07 00:06:26;;;;;;;;;;;;;;;21.61;29.82;96274.38;5089588;28;657;-76
2021/04/07 00:08:52;;;;;;;;;;;;;;;21.58;30.14;96272.53;5089024;28;576;-76
2021/04/07 00:11:17;;;;;;;;;;;;;;;21.54;30.31;96280.41;5089427;28;579;-77
2021/04/07 00:13:48;;;;;;;;;;;;;;;21.46;30.52;96274.38;5088592;28;961;-77
2021/04/07 00:16:14;;;;;;;;;;;;;;;21.51;30.31;96278.56;5088885;28;1965;-77
2021/04/07 00:18:39;;;;;;;;;;;;;;;21.44;30.21;96287.41;5088971;28;949;-76
2021/04/07 00:21:05;;;;;;;;;;;;;;;21.42;30.71;96287.91;5089475;28;655;-77
2021/04/07 00:23:31;;;;;;;;;;;;;;;21.40;30.84;96295.31;5088728;28;660;-78
2021/04/07 00:25:56;;;;;;;;;;;;;;;21.89;30.59;96280.53;5089183;28;628;-76
2021/04/07 00:28:21;;;;;;;;;;;;;;;22.29;29.80;96296.94;5121316;28;855;-77
2021/04/07 00:30:47;;;;;;;;;;;;;;;22.39;29.55;96294.00;5122016;28;934;-77
2021/04/07 00:33:13;;;;;;;;;;;;;;;22.16;29.59;96287.97;5088878;28;780;-77
2021/04/07 00:35:38;;;;;;;;;;;;;;;21.75;29.82;96299.06;5121719;28;1886;-76
2021/04/07 00:38:04;;;;;;;;;;;;;;;21.59;29.96;96297.50;5088783;28;653;-77
2021/04/07 00:40:29;;;;;;;;;;;;;;;21.40;30.69;96306.63;5088668;28;994;-77
2021/04/07 00:42:55;;;;;;;;;;;;;;;21.50;30.57;96305.28;5088568;28;866;-77
2021/04/07 00:45:21;;;;;;;;;;;;;;;21.41;30.71;96309.00;5087944;28;1145;-77
2021/04/07 00:47:50;;;;;;;;;;;;;;;21.26;30.85;96302.50;5088828;28;578;-77
2021/04/07 00:50:16;;;;;;;;;;;;;;;21.63;30.02;96302.97;5123448;28;657;-77
2021/04/07 00:52:42;;;;;;;;;;;;;;;21.40;30.57;96312.28;5108022;28;1387;-77
2021/04/07 00:55:08;;;;;;;;;;;;;;;21.47;30.35;96312.72;5092483;28;653;-77
2021/04/07 00:57:33;;;;;;;;;;;;;;;21.50;30.38;96313.78;5125271;28;1875;-77
2021/04/07 00:59:59;;;;;;;;;;;;;;;21.45;30.48;96314.44;5091922;28;911;-77
2021/04/07 01:02:24;;;;;;;;;;;;;;;21.81;30.39;96308.47;5092323;28;846;-77
2021/04/07 01:04:50;;;;;;;;;;;;;;;22.10;30.01;96304.06;5125036;28;768;-77
2021/04/07 01:07:16;;;;;;;;;;;;;;;22.28;29.61;96301.06;5092549;28;716;-77
2021/04/07 01:09:42;;;;;;;;;;;;;;;22.09;29.60;96288.34;5092073;28;570;-77
2021/04/07 01:12:07;;;;;;;;;;;;;;;21.74;30.05;96300.34;5092164;28;635;-77
2021/04/07 01:14:33;;;;;;;;;;;;;;;21.77;30.12;96313.53;5091745;28;893;-76
2021/04/07 01:17:02;;;;;;;;;;;;;;;21.62;30.39;96301.41;5124656;28;1996;-77
2021/04/07 01:19:27;;;;;;;;;;;;;;;21.77;30.42;96305.03;5091977;28;780;-77
2021/04/07 01:21:53;;;;;;;;;;;;;;;21.69;30.92;96309.50;5092158;28;533;-77
2021/04/07 01:24:19;;;;;;;;;;;;;;;21.62;30.75;96312.75;5124662;28;795;-76
2021/04/07 01:26:44;;;;;;;;;;;;;;;21.54;30.86;96308.72;5124493;28;927;-77
2021/04/07 01:29:10;;;;;;;;;;;;;;;21.54;30.90;96311.53;5091459;28;838;-78
2021/04/07 01:31:51;;;;;;;;;;;;;;;21.62;31.07;96321.22;5091975;28;955;-76
2021/04/07 01:34:24;;;;;;;;;;;;;;;21.40;31.22;96312.28;5124379;28;1039;-77
2021/04/07 01:36:50;;;;;;;;;;;;;;;21.37;31.50;96313.28;5124555;28;1955;-77
2021/04/07 01:39:15;;;;;;;;;;;;;;;21.40;31.16;96313.09;5091661;28;573;-77
2021/04/07 01:41:41;;;;;;;;;;;;;;;21.53;31.08;96318.47;5091865;28;646;-77
2021/04/07 01:44:06;;;;;;;;;;;;;;;21.95;31.34;96315.38;5091603;28;638;-78
2021/04/07 01:46:40;;;;;;;;;;;;;;;22.20;30.73;96314.03;5124253;28;826;-78
2021/04/07 01:49:09;;;;;;;;;;;;;;;22.41;29.95;96319.78;5091192;28;809;-77
2021/04/07 01:51:34;;;;;;;;;;;;;;;22.30;30.09;96321.16;5123604;28;1002;-77
2021/04/07 01:54:00;;;;;;;;;;;;;;;21.80;30.82;96325.91;5091228;28;641;-77
2021/04/07 01:56:26;;;;;;;;;;;;;;;21.79;30.77;96322.31;5091445;28;1898;-76
2021/04/07 01:58:58;;;;;;;;;;;;;;;21.69;31.11;96323.66;5091132;28;619;-76
2021/04/07 02:01:23;;;;;;;;;;;;;;;21.78;31.18;96325.63;5090669;28;795;-75
2021/04/07 02:03:49;;;;;;;;;;;;;;;21.63;31.06;96331.28;5090712;28;900;-77
2021/04/07 02:06:14;;;;;;;;;;;;;;;21.54;31.40;96322.88;5091240;28;821;-76
2021/04/07 02:08:40;;;;;;;;;;;;;;;21.75;31.35;96333.03;5090863;28;551;-78
2021/04/07 02:11:05;;;;;;;;;;;;;;;21.75;31.15;96327.38;5091271;28;550;-77
2021/04/07 02:13:31;;;;;;;;;;;;;;;21.71;31.55;96315.50;5090777;28;518;-76
2021/04/07 02:15:56;;;;;;;;;;;;;;;21.59;31.85;96319.34;5090684;28;1969;-75
2021/04/07 02:18:22;;;;;;;;;;;;;;;21.72;31.54;96316.25;5090427;28;782;-76
2021/04/07 02:20:47;;;;;;;;;;;;;;;21.52;31.59;96326.19;5090862;28;813;-77
2021/04/07 02:23:12;;;;;;;;;;;;;;;21.65;31.48;96323.06;5090677;28;638;-75
2021/04/07 02:25:38;;;;;;;;;;;;;;;21.44;32.00;96318.53;5090984;28;661;-76
2021/04/07 02:28:03;;;;;;;;;;;;;;;21.49;31.60;96329.19;5090531;28;549;-77
2021/04/07 02:30:35;;;;;;;;;;;;;;;21.66;31.33;96319.00;5090394;28;907;-76
2021/04/07 02:33:01;;;;;;;;;;;;;;;21.58;31.79;96327.06;5090452;28;903;-77
2021/04/07 02:35:26;;;;;;;;;;;;;;;21.57;31.67;96316.25;5123196;28;1882;-77
2021/04/07 02:37:52;;;;;;;;;;;;;;;21.94;31.97;96321.56;5090418;28;709;-78
2021/04/07 02:40:17;;;;;;;;;;;;;;;22.10;31.93;96313.38;5090507;28;641;-75
2021/04/07 02:42:43;;;;;;;;;;;;;;;22.25;31.57;96319.03;5123122;28;1231;-76
2021/04/07 02:45:08;;;;;;;;;;;;;;;22.54;30.92;96323.09;5089912;28;935;-77
2021/04/07 02:47:34;;;;;;;;;;;;;;;22.07;30.90;96319.19;5090423;28;911;-76
2021/04/07 02:49:59;;;;;;;;;;;;;;;21.74;31.11;96328.66;5090152;28;634;-75
2021/04/07 02:52:25;;;;;;;;;;;;;;;21.53;31.19;96326.97;5090476;28;658;-76
2021/04/07 02:54:51;;;;;;;;;;;;;;;21.69;31.06;96332.16;5090133;28;610;-77
2021/04/07 02:57:16;;;;;;;;;;;;;;;21.72;31.12;96334.03;5088734;28;1951;-77
2021/04/07 02:59:42;;;;;;;;;;;;;;;21.55;31.26;96330.88;5088676;28;1137;-76
2021/04/07 03:02:07;;;;;;;;;;;;;;;21.45;31.30;96331.41;5090243;28;899;-77
2021/04/07 03:04:33;;;;;;;;;;;;;;;21.61;31.18;96333.81;5089929;28;551;-78
2021/04/07 03:06:58;;;;;;;;;;;;;;;21.46;31.58;96350.00;5090228;28;576;-77
2021/04/07 03:09:24;;;;;;;;;;;;;;;21.48;31.39;96345.38;5089513;28;895;-78
2021/04/07 03:11:49;;;;;;;;;;;;;;;21.42;31.38;96343.72;5089790;28;808;-77
2021/04/07 03:14:18;;;;;;;;;;;;;;;21.51;31.04;96346.50;5088769;28;864;-76
2021/04/07 03:16:49;;;;;;;;;;;;;;;21.52;30.87;96353.72;5122100;28;1894;-78
2021/04/07 03:19:15;;;;;;;;;;;;;;;21.46;31.06;96347.16;5089920;28;686;-76
2021/04/07 03:21:40;;;;;;;;;;;;;;;21.59;30.78;96358.97;5090190;28;565;-77
2021/04/07 03:24:06;;;;;;;;;;;;;;;21.66;31.09;96343.66;5089252;28;932;-78
2021/04/07 03:26:31;;;;;;;;;;;;;;;21.99;31.16;96352.78;5089778;28;1135;-78
2021/04/07 03:28:57;;;;;;;;;;;;;;;22.27;30.85;96339.13;5089569;28;807;-78
2021/04/07 03:31:23;;;;;;;;;;;;;;;22.48;30.12;96333.53;5089026;28;548;-78
2021/04/07 03:33:48;;;;;;;;;;;;;;;21.98;30.25;96339.13;5122303;28;996;-78
2021/04/07 03:36:14;;;;;;;;;;;;;;;21.90;30.26;96343.59;5089699;28;2134;-78
2021/04/07 03:38:40;;;;;;;;;;;;;;;21.74;30.30;96342.03;5088824;28;1098;-78
2021/04/07 03:41:05;;;;;;;;;;;;;;;21.68;30.50;96356.09;5089156;28;1325;-77
2021/04/07 03:43:31;;;;;;;;;;;;;;;21.61;30.89;96356.47;5089333;28;761;-76
2021/04/07 03:45:57;;;;;;;;;;;;;;;21.57;31.11;96361.53;5089875;28;606;-78
2021/04/07 03:48:24;;;;;;;;;;;;;;;21.59;30.96;96367.47;5089282;28;580;-78
2021/04/07 03:50:50;;;;;;;;;;;;;;;21.51;31.12;96369.91;5089796;28;536;-78
2021/04/07 03:53:15;;;;;;;;;;;;;;;21.44;31.11;96367.44;5089075;28;879;-77
2021/04/07 03:55:50;;;;;;;;;;;;;;;21.46;31.40;96372.63;5089195;28;1953;-78
2021/04/07 03:58:16;;;;;;;;;;;;;;;21.51;31.32;96377.63;5089140;28;955;-77
2021/04/07 04:00:41;;;;;;;;;;;;;;;21.58;30.88;96372.34;5089656;28;529;-77
2021/04/07 04:03:07;;;;;;;;;;;;;;;21.44;31.20;96369.47;5122187;28;641;-77
2021/04/07 04:05:33;;;;;;;;;;;;;;;21.53;31.07;96375.06;5089170;28;701;-76
2021/04/07 04:07:58;;;;;;;;;;;;;;;21.57;30.99;96367.19;5088727;28;894;-76
2021/04/07 04:10:24;;;;;;;;;;;;;;;21.89;31.18;96376.81;5088973;28;975;-77
2021/04/07 04:12:49;;;;;;;;;;;;;;;22.35;30.72;96365.03;5089020;28;876;-78
2021/04/07 04:15:15;;;;;;;;;;;;;;;22.57;30.09;96373.13;5089468;28;572;-78
2021/04/07 04:17:41;;;;;;;;;;;;;;;22.36;30.08;96363.75;5089697;28;658;-78
2021/04/07 04:20:06;;;;;;;;;;;;;;;21.71;30.83;96366.44;5088852;28;840;-77
2021/04/07 04:22:32;;;;;;;;;;;;;;;21.74;30.63;96365.44;5122013;28;944;-78
2021/04/07 04:24:57;;;;;;;;;;;;;;;21.72;30.69;96362.34;5123109;28;811;-78
2021/04/07 04:27:23;;;;;;;;;;;;;;;21.54;31.05;96357.59;5093536;28;614;-78
2021/04/07 04:29:48;;;;;;;;;;;;;;;21.72;30.52;96355.91;5093213;28;571;-78
2021/04/07 04:32:14;;;;;;;;;;;;;;;21.68;30.78;96372.28;5093575;28;653;-78
2021/04/07 04:34:39;;;;;;;;;;;;;;;21.54;31.00;96373.81;5092783;28;1050;-78
2021/04/07 04:37:05;;;;;;;;;;;;;;;21.44;31.21;96387.25;5093065;28;1899;-78
2021/04/07 04:39:30;;;;;;;;;;;;;;;21.92;31.05;96390.00;5092983;28;833;-78
2021/04/07 04:41:56;;;;;;;;;;;;;;;22.26;30.15;96391.41;5093514;28;904;-78
2021/04/07 04:44:21;;;;;;;;;;;;;;;22.54;29.92;96403.25;5093018;28;559;-78
2021/04/07 04:46:46;;;;;;;;;;;;;;;22.18;30.00;96401.59;5092205;28;652;-78
2021/04/07 04:49:12;;;;;;;;;;;;;;;21.85;30.56;96413.78;5092535;28;1045;-78
2021/04/07 04:51:38;;;;;;;;;;;;;;;21.78;30.34;96410.56;5092946;28;867;-78
2021/04/07 04:54:03;;;;;;;;;;;;;;;21.60;30.56;96434.13;5092781;28;868;-78
2021/04/07 04:56:29;;;;;;;;;;;;;;;21.60;30.60;96436.97;5093114;28;1965;-78
2021/04/07 04:58:54;;;;;;;;;;;;;;;21.55;30.93;96438.44;5125661;28;1175;-78
2021/04/07 05:01:19;;;;;;;;;;;;;;;21.58;30.54;96453.66;5093095;28;526;-78
2021/04/07 05:03:45;;;;;;;;;;;;;;;21.55;30.84;96454.59;5125160;28;856;-78
2021/04/07 05:06:10;;;;;;;;;;;;;;;21.59;30.70;96455.22;5092967;28;933;-78
2021/04/07 05:08:36;;;;;;;;;;;;;;;21.59;31.02;96466.53;5092230;28;991;-78
2021/04/07 05:11:01;;;;;;;;;;;;;;;22.09;30.85;96466.78;5093113;28;614;-78
2021/04/07 05:13:27;;;;;;;;;;;;;;;22.36;30.06;96477.88;5092398;28;583;-78
2021/04/07 05:15:52;;;;;;;;;;;;;;;22.28;29.80;96475.94;5092737;28;1971;-78
2021/04/07 05:18:19;;;;;;;;;;;;;;;22.03;29.96;96465.91;5091940;28;888;-78
2021/04/07 05:20:44;;;;;;;;;;;;;;;21.88;30.02;96467.91;5092518;28;901;-78
2021/04/07 05:23:10;;;;;;;;;;;;;;;21.65;30.59;96461.75;5091142;28;1235;-78
2021/04/07 05:25:36;;;;;;;;;;;;;;;21.75;30.58;96463.25;5092574;28;589;-78
2021/04/07 05:28:04;;;;;;;;;;;;;;;21.65;30.80;96464.59;5092210;28;570;-78
2021/04/07 05:30:58;;;;;;;;;;;;;;;21.66;30.65;96468.22;5092128;28;1050;-78
2021/04/07 05:33:15;;;;;;;;;;;;;;;21.54;30.89;96467.19;5091561;28;979;-78
2021/04/07 05:35:41;;;;;;;;;;;;;;;21.56;31.00;96473.16;5106597;28;1886;-78
2021/04/07 05:38:06;;;;;;;;;;;;;;;21.57;30.82;96463.41;5090486;28;1221;-78
2021/04/07 05:40:32;;;;;;;;;;;;;;;21.54;31.00;96470.03;5091048;28;1170;-78
2021/04/07 05:42:57;;;;;;;;;;;;;;;21.57;30.88;96466.25;5092125;28;589;-78
2021/04/07 05:45:23;;;;;;;;;;;;;;;21.56;31.03;96456.19;5091390;28;1015;-78
2021/04/07 05:47:48;;;;;;;;;;;;;;;21.65;30.47;96464.59;5091564;28;925;-78
2021/04/07 05:50:13;;;;;;;;;;;;;;;21.52;30.97;96464.06;5091772;28;1082;-78
2021/04/07 05:52:39;;;;;;;;;;;;;;;21.73;30.92;96471.47;5091814;28;573;-77
2021/04/07 05:55:05;;;;;;;;;;;;;;;22.15;30.22;96467.69;5091774;28;568;-78
2021/04/07 05:57:30;;;;;;;;;;;;;;;22.39;29.80;96464.81;5091914;28;1894;-78
2021/04/07 05:59:56;;;;;;;;;;;;;;;22.28;29.63;96459.72;5091319;28;873;-78
2021/04/07 06:02:21;;;;;;;;;;;;;;;21.91;30.03;96464.09;5091652;28;900;-78
2021/04/07 06:04:46;;;;;;;;;;;;;;;21.73;29.94;96467.88;5091438;28;811;-78
2021/04/07 06:07:12;;;;;;;;;;;;;;;21.53;30.36;96463.59;5092031;28;654;-78
2021/04/07 06:09:37;;;;;;;;;;;;;;;21.42;30.76;96479.53;5091443;28;744;-78
2021/04/07 06:12:03;;;;;;;;;;;;;;;21.37;30.80;96466.06;5091712;28;619;-78
2021/04/07 06:14:28;;;;;;;;;;;;;;;21.58;30.52;96468.59;5091089;28;954;-78
2021/04/07 06:16:54;;;;;;;;;;;;;;;21.36;30.86;96476.59;5089963;28;1972;-78
2021/04/07 06:19:19;;;;;;;;;;;;;;;21.87;31.03;96486.19;5091116;28;997;-78
2021/04/07 06:21:45;;;;;;;;;;;;;;;22.35;29.74;96487.66;5091645;28;609;-78
2021/04/07 06:24:10;;;;;;;;;;;;;;;22.58;29.52;96488.06;5091092;28;559;-78
2021/04/07 06:26:36;;;;;;;;;;;;;;;22.16;29.53;96491.94;5091438;28;581;-78
2021/04/07 06:29:02;;;;;;;;;;;;;;;21.94;30.13;96497.91;5090872;28;883;-78
2021/04/07 06:31:27;;;;;;;;;;;;;;;21.44;30.84;96505.31;5124095;28;986;-78
2021/04/07 06:33:53;;;;;;;;;;;;;;;21.61;30.50;96508.53;5090489;28;988;-78
2021/04/07 06:36:18;;;;;;;;;;;;;;;21.57;30.58;96514.34;5091153;28;1878;-78
2021/04/07 06:38:44;;;;;;;;;;;;;;;21.62;30.87;96522.19;5090783;28;582;-77
2021/04/07 06:41:10;;;;;;;;;;;;;;;21.45;31.05;96535.16;5091100;28;656;-78
2021/04/07 06:43:35;;;;;;;;;;;;;;;21.52;30.86;96537.66;5090239;28;831;-78
2021/04/07 06:46:01;;;;;;;;;;;;;;;21.37;31.16;96550.94;5090690;28;792;-78
2021/04/07 06:48:26;;;;;;;;;;;;;;;21.51;30.79;96553.06;5123172;28;867;-78
2021/04/07 06:50:52;;;;;;;;;;;;;;;21.48;30.75;96545.53;5090989;28;576;-78
2021/04/07 06:53:18;;;;;;;;;;;;;;;20.84;30.56;96458.13;5090501;28;548;-78
2021/04/07 06:55:43;;;;;;;;;;;;;;;21.93;30.75;96549.38;5090898;28;1949;-78
2021/04/07 06:58:09;;;;;;;;;;;;;;;22.25;30.20;96551.34;5123086;28;1029;-78
2021/04/07 07:00:35;;;;;;;;;;;;;;;22.41;29.63;96552.16;5090363;28;857;-78
2021/04/07 07:03:10;;;;;;;;;;;;;;;22.14;29.75;96551.13;5090413;28;885;-78
2021/04/07 07:05:36;;;;;;;;;;;;;;;21.87;30.16;96566.25;5123125;28;569;-78
2021/04/07 07:08:03;;;;;;;;;;;;;;;21.64;30.45;96559.28;5090287;28;496;-78
2021/04/07 07:10:34;;;;;;;;;;;;;;;21.64;30.82;96553.63;5090596;28;583;-78
2021/04/07 07:13:00;;;;;;;;;;;;;;;21.60;31.03;96561.50;5090208;28;837;-78
2021/04/07 07:15:25;;;;;;;;;;;;;;;21.58;31.08;96566.88;5123148;28;1890;-78
2021/04/07 07:17:51;;;;;;;;;;;;;;;21.61;30.97;96571.56;5090486;28;792;-79
2021/04/07 07:20:24;;;;;;;;;;;;;;;21.57;31.04;96587.94;5090355;28;538;-78
2021/04/07 07:22:50;;;;;;;;;;;;;;;21.23;31.77;96581.44;5088928;28;844;-78
2021/04/07 07:25:15;;;;;;;;;;;;;;;21.51;31.32;96601.19;5089240;28;845;-78
2021/04/07 07:27:42;;;;;;;;;;;;;;;21.60;31.00;96620.94;5123054;28;1171;-78
2021/04/07 07:30:08;;;;;;;;;;;;;;;22.18;30.72;96618.94;5090123;28;1030;-78
2021/04/07 07:32:35;;;;;;;;;;;;;;;22.56;29.42;96643.69;5090406;28;623;-78
2021/04/07 07:35:09;;;;;;;;;;;;;;;22.71;29.43;96649.41;5089922;28;1109;-78
2021/04/07 07:37:35;;;;;;;;;;;;;;;22.33;29.71;96665.13;5123200;28;1947;-78
2021/04/07 07:40:01;;;;;;;;;;;;;;;21.91;30.17;96670.81;5089749;28;867;-78
2021/04/07 07:42:26;;;;;;;;;;;;;;;21.75;30.40;96675.59;5090186;28;877;-79
2021/04/07 07:44:52;;;;;;;;;;;;;;;21.67;30.58;96680.06;5122786;28;1005;-78
2021/04/07 07:50:53;;;;;;;;;;;;;;;21.44;30.90;96697.72;5090465;28;616;-78
2021/04/07 07:53:20;;;;;;;;;;;;;;;21.51;30.73;96709.50;5089676;28;621;-79
2021/04/07 07:55:47;;;;;;;;;;;;;;;21.52;30.83;96710.28;5089973;28;1930;-78
2021/04/07 07:58:13;;;;;;;;;;;;;;;21.88;30.74;96717.09;5089485;28;926;-79
2021/04/07 08:00:38;;;;;;;;;;;;;;;22.19;29.99;96711.94;5122266;28;951;-78
2021/04/07 08:03:32;;;;;;;;;;;;;;;22.53;29.46;96702.13;5122612;28;1125;-79
2021/04/07 08:06:00;;;;;;;;;;;;;;;22.21;29.29;96703.75;5090310;28;564;-78
2021/04/07 08:08:25;;;;;;;;;;;;;;;21.90;29.68;96700.41;5088972;28;678;-78
2021/04/07 08:10:51;;;;;;;;;;;;;;;21.87;29.86;96690.06;5090258;28;522;-78
2021/04/07 08:13:17;;;;;;;;;;;;;;;21.83;29.91;96696.66;5122191;28;988;-79
2021/04/07 08:15:42;;;;;;;;;;;;;;;21.61;30.13;96701.78;5089601;28;1874;-78
2021/04/07 08:18:08;;;;;;;;;;;;;;;21.63;30.31;96704.91;5122506;28;882;-78
2021/04/07 08:20:34;;;;;;;;;;;;;;;21.63;30.33;96698.47;5089873;28;573;-79
2021/04/07 08:22:59;;;;;;;;;;;;;;;21.57;30.44;96718.13;5122609;28;563;-78
2021/04/07 08:25:25;;;;;;;;;;;;;;;21.59;30.15;96718.44;5122888;28;640;-79
2021/04/07 08:27:54;;;;;;;;;;;;;;;21.66;30.05;96715.28;5105032;28;1248;-79
2021/04/07 08:30:20;;;;;;;;;;;;;;;21.52;30.25;96721.59;5121562;28;810;-79
2021/04/07 08:32:46;;;;;;;;;;;;;;;21.74;29.97;96727.84;5122674;28;966;-78
2021/04/07 08:35:12;;;;;;;;;;;;;;;22.16;29.59;96738.41;5121322;28;992;-76
2021/04/07 08:37:38;;;;;;;;;;;;;;;22.46;29.09;96741.41;5088897;28;1886;-77
2021/04/07 08:40:13;;;;;;;;;;;;;;;22.49;28.67;96729.09;5088655;28;820;-76
2021/04/07 08:42:40;;;;;;;;;;;;;;;22.17;29.23;96731.47;5088495;28;886;-76
2021/04/07 08:45:06;;;;;;;;;;;;;;;21.88;29.39;96731.25;5088486;28;834;-76
2021/04/07 08:47:46;;;;;;;;;;;;;;;22.08;29.26;96731.50;5087880;28;1237;-76
2021/04/07 08:50:12;;;;;;;;;;;;;;;21.73;29.80;96731.94;5088688;28;642;-77
2021/04/07 08:52:45;;;;;;;;;;;;;;;22.00;29.39;96733.88;5089243;28;551;-78
2021/04/07 08:55:23;;;;;;;;;;;;;;;21.62;30.20;96748.63;5089138;28;618;-78
2021/04/07 08:57:59;;;;;;;;;;;;;;;21.70;30.02;96761.19;5089227;28;861;-78
2021/04/07 09:00:25;;;;;;;;;;;;;;;21.82;29.81;96763.06;5089071;28;910;-79
2021/04/07 09:02:51;;;;;;;;;;;;;;;21.72;29.71;96770.00;5089296;28;547;-78
2021/04/07 09:05:17;;;;;;;;;;;;;;;21.72;29.94;96792.66;5121955;28;818;-78
2021/04/07 09:07:43;;;;;;;;;;;;;;;21.57;30.01;96789.69;5089431;28;648;-78
2021/04/07 09:10:12;;;;;;;;;;;;;;;21.57;30.03;96797.38;5089194;28;562;-78
2021/04/07 09:12:38;;;;;;;;;;;;;;;21.62;30.15;96788.25;5091358;28;886;-78
2021/04/07 09:15:11;;;;;;;;;;;;;;;22.07;29.45;96817.72;5092236;28;897;-78
2021/04/07 09:17:46;;;;;;;;;;;;;;;22.47;28.69;96828.00;5092773;28;1952;-78
2021/04/07 09:20:31;;;;;;;;;;;;;;;22.39;28.66;96832.44;5125535;28;693;-78
2021/04/07 09:23:09;;;;;;;;;;;;;;;22.14;29.05;96845.75;5125013;28;822;-78
2021/04/07 09:25:36;;;;;;;;;;;;;;;21.83;29.46;96841.06;5092754;28;570;-78
2021/04/07 09:28:05;;;;;;;;;;;;;;;21.90;29.47;96839.16;5091956;28;995;-78
2021/04/07 09:30:45;;;;;;;;;;;;;;;21.70;30.06;96851.78;5092199;28;769;-79
2021/04/07 09:33:10;;;;;;;;;;;;;;;21.74;30.04;96846.75;5092181;28;552;-78
2021/04/07 09:35:37;;;;;;;;;;;;;;;21.71;29.88;96847.69;5092347;28;1886;-78
2021/04/07 09:38:03;;;;;;;;;;;;;;;21.76;29.97;96849.91;5092197;28;618;-78
2021/04/07 09:40:28;;;;;;;;;;;;;;;21.97;29.32;96841.69;5125246;28;632;-78
2021/04/07 09:42:54;;;;;;;;;;;;;;;21.99;29.34;96844.81;5092045;28;856;-78
2021/04/07 09:45:30;;;;;;;;;;;;;;;22.02;29.31;96843.84;5091913;28;836;-78
2021/04/07 09:48:17;;;;;;;;;;;;;;;21.84;29.37;96851.13;5091992;28;645;-78
2021/04/07 09:50:43;;;;;;;;;;;;;;;21.61;30.07;96853.84;5092351;28;647;-78
2021/04/07 09:53:08;;;;;;;;;;;;;;;21.65;30.00;96841.09;5091831;28;566;-78
2021/04/07 09:55:34;;;;;;;;;;;;;;;21.71;29.92;96842.03;5124911;28;1961;-78
2021/04/07 09:58:03;;;;;;;;;;;;;;;21.68;29.57;96842.97;5092224;28;554;-78
2021/04/07 10:00:32;;;;;;;;;;;;;;;21.74;29.71;96860.91;5124620;28;852;-78
2021/04/07 10:02:57;;;;;;;;;;;;;;;21.75;29.68;96868.13;5091402;28;913;-78
2021/04/07 10:05:29;;;;;;;;;;;;;;;21.78;29.42;96875.69;5091839;28;848;-78
2021/04/07 10:07:59;;;;;;;;;;;;;;;21.56;29.80;96880.75;5091748;28;661;-77
2021/04/07 10:10:26;;;;;;;;;;;;;;;21.74;29.66;96877.88;5091717;28;554;-78
2021/04/07 10:12:51;;;;;;;;;;;;;;;21.82;29.29;96870.66;5091626;28;621;-78
2021/04/07 10:15:17;;;;;;;;;;;;;;;21.73;29.66;96867.81;5124217;28;953;-78
2021/04/07 10:17:43;;;;;;;;;;;;;;;21.73;29.26;96879.16;5124059;28;1949;-76
2021/04/07 10:20:15;;;;;;;;;;;;;;;21.56;29.83;96894.88;5124122;28;970;-78
2021/04/07 10:22:41;;;;;;;;;;;;;;;22.15;28.98;96886.97;5091245;28;640;-79
2021/04/07 10:25:14;;;;;;;;;;;;;;;22.50;28.38;96883.75;5124264;28;648;-78
2021/04/07 10:27:39;;;;;;;;;;;;;;;22.34;28.34;96894.19;5123174;28;1109;-78
2021/04/07 10:30:08;;;;;;;;;;;;;;;22.22;28.34;96885.84;5090999;28;887;-78
2021/04/07 10:32:42;;;;;;;;;;;;;;;22.11;28.41;96886.34;5124521;28;968;-78
2021/04/07 10:35:08;;;;;;;;;;;;;;;21.65;29.10;96889.22;5122947;28;947;-78
2021/04/07 10:37:34;;;;;;;;;;;;;;;21.64;29.51;96904.63;5124007;28;1957;-78
2021/04/07 10:40:00;;;;;;;;;;;;;;;21.66;29.36;96902.13;5123447;28;886;-78
2021/04/07 10:42:25;;;;;;;;;;;;;;;21.79;29.35;96922.56;5123738;28;901;-78
2021/04/07 10:45:04;;;;;;;;;;;;;;;22.39;28.50;96917.47;5123257;28;1155;-78
2021/04/07 10:47:37;;;;;;;;;;;;;;;22.53;28.04;96899.78;5123901;28;1327;-78
2021/04/07 10:50:03;;;;;;;;;;;;;;;22.29;28.24;96880.66;5122978;28;577;-78
2021/04/07 10:52:32;;;;;;;;;;;;;;;21.93;28.92;96867.34;5123723;28;916;-78
2021/04/07 10:54:58;;;;;;;;;;;;;;;22.01;28.43;96853.63;5123513;28;671;-78
2021/04/07 10:57:53;;;;;;;;;;;;;;;21.77;28.90;96879.78;5090670;28;1964;-78
2021/04/07 11:00:30;;;;;;;;;;;;;;;22.45;28.20;96867.38;5094026;28;1106;-78
2021/04/07 11:02:56;;;;;;;;;;;;;;;23.11;27.13;96864.56;5090614;28;862;-78
2021/04/07 11:05:22;;;;;;;;;;;;;;;22.63;27.68;96864.44;5090791;28;644;-78
2021/04/07 11:07:58;;;;;;;;;;;;;;;22.75;27.37;96863.47;5090610;28;555;-77
2021/04/07 11:10:24;;;;;;;;;;;;;;;22.74;27.53;96870.41;5089460;28;551;-78
2021/04/07 11:12:49;;;;;;;;;;;;;;;21.74;28.89;96858.06;5090180;28;956;-78
2021/04/07 11:15:15;;;;;;;;;;;;;;;21.88;28.96;96850.19;5122939;28;920;-78
2021/04/07 11:17:50;;;;;;;;;;;;;;;21.28;29.70;96855.22;5090490;28;1890;-78
2021/04/07 11:20:15;;;;;;;;;;;;;;;22.21;28.27;96855.97;5123109;28;543;-78
2021/04/07 11:22:41;;;;;;;;;;;;;;;22.02;28.45;96843.84;5090420;28;573;-78
2021/04/07 11:25:06;;;;;;;;;;;;;;;21.96;28.64;96831.59;5123012;28;573;-78
2021/04/07 11:27:35;;;;;;;;;;;;;;;21.99;28.33;96816.50;5090020;28;1010;-78
2021/04/07 11:30:01;;;;;;;;;;;;;;;21.91;28.38;96815.25;5122353;28;932;-79
2021/04/07 11:32:29;;;;;;;;;;;;;;;21.85;28.56;96800.94;5088482;28;1126;-78
2021/04/07 11:35:07;;;;;;;;;;;;;;;21.98;27.94;96809.25;5088955;28;1135;-78
2021/04/07 11:40:11;;;;;;;;;;;;;;;21.78;28.43;96813.41;5122734;28;1234;-77
2021/04/07 11:42:56;;;;;;;;;;;;;;;21.76;28.54;96820.78;5089740;28;819;-78
2021/04/07 11:45:21;;;;;;;;;;;;;;;21.59;29.12;96823.16;5117313;28;854;-78
2021/04/07 11:47:47;;;;;;;;;;;;;;;21.96;28.27;96811.78;5089904;28;626;-78
2021/04/07 11:50:15;;;;;;;;;;;;;;;22.98;26.58;96812.94;5089915;28;532;-78
2021/04/07 11:52:41;;;;;;;;;;;;;;;22.13;27.64;96813.03;5090012;28;634;-78
2021/04/07 11:55:07;;;;;;;;;;;;;;;21.81;28.22;96823.78;5089449;28;886;-78
2021/04/07 11:57:34;;;;;;;;;;;;;;;21.24;29.13;96836.81;5088793;28;1887;-79
2021/04/07 11:59:59;;;;;;;;;;;;;;;21.16;29.85;96847.66;5122291;28;865;-78
2021/04/07 12:02:26;;;;;;;;;;;;;;;22.57;27.10;96855.03;5122960;28;648;-78
2021/04/07 12:04:52;;;;;;;;;;;;;;;23.16;26.00;96844.03;5089405;28;633;-78
2021/04/07 12:07:20;;;;;;;;;;;;;;;22.14;27.86;96844.97;5089640;28;952;-78
2021/04/07 12:09:46;;;;;;;;;;;;;;;22.23;27.07;96842.91;5089169;28;816;-78
2021/04/07 12:12:12;;;;;;;;;;;;;;;21.75;28.06;96858.84;5089610;28;888;-78
2021/04/07 12:14:37;;;;;;;;;;;;;;;21.38;28.49;96858.09;5089214;28;890;-78
2021/04/07 12:17:02;;;;;;;;;;;;;;;21.27;28.72;96873.44;5089652;28;1950;-79
2021/04/07 12:19:28;;;;;;;;;;;;;;;21.33;28.42;96862.31;5089324;28;566;-79
2021/04/07 12:21:53;;;;;;;;;;;;;;;21.98;26.98;96882.91;5089680;28;571;-78
2021/04/07 12:24:19;;;;;;;;;;;;;;;21.26;28.25;96905.84;5089320;28;624;-78
2021/04/07 12:26:45;;;;;;;;;;;;;;;21.31;28.30;96899.59;5089327;28;762;-78
2021/04/07 12:29:11;;;;;;;;;;;;;;;21.74;27.50;96897.72;5121792;28;974;-78
2021/04/07 12:31:36;;;;;;;;;;;;;;;21.45;27.99;96903.03;5089512;28;891;-78
2021/04/07 12:34:02;;;;;;;;;;;;;;;21.43;28.07;96929.00;5088238;28;1231;-79
2021/04/07 12:36:29;;;;;;;;;;;;;;;22.19;26.92;96949.16;5089220;28;1886;-78
2021/04/07 12:38:56;;;;;;;;;;;;;;;22.18;26.90;96942.72;5089030;28;551;-79
2021/04/07 12:41:35;;;;;;;;;;;;;;;22.18;26.70;96959.72;5089244;28;803;-78
2021/04/07 12:44:01;;;;;;;;;;;;;;;21.58;27.86;96977.28;5088733;28;884;-79
2021/04/07 12:46:29;;;;;;;;;;;;;;;21.54;27.78;97004.94;5091473;28;799;-78
2021/04/07 12:48:55;;;;;;;;;;;;;;;21.73;27.72;97005.78;5092959;28;733;-78
2021/04/07 12:51:24;;;;;;;;;;;;;;;22.57;26.32;96993.94;5093189;28;507;-78
2021/04/07 12:53:52;;;;;;;;;;;;;;;22.23;26.79;97003.63;5124953;28;808;-78
2021/04/07 12:56:19;;;;;;;;;;;;;;;22.04;27.06;96994.31;5125199;28;1890;-78
2021/04/07 12:58:53;;;;;;;;;;;;;;;21.94;27.29;96979.34;5124843;28;841;-78
2021/04/07 13:01:26;;;;;;;;;;;;;;;21.13;28.23;96983.59;5093023;28;606;-79
2021/04/07 13:03:56;;;;;;;;;;;;;;;20.99;28.40;97013.25;5091617;28;1026;-78
2021/04/07 13:06:23;;;;;;;;;;;;;;;21.42;28.18;97028.50;5092668;28;567;-78
2021/04/07 13:08:54;;;;;;;;;;;;;;;21.60;27.82;97022.88;5092706;28;896;-78
2021/04/07 13:11:22;;;;;;;;;;;;;;;21.79;27.46;97035.81;5108515;28;1021;-78